Time;durP1;ratioP1;P1;durP2;ratioP2;P2;SDS_P1;SDS_P2;PMS_P1;PMS_P2;Temp;Humidity;BMP_temperature;BMP_pressure;BME280_temperature;BME280_humidity;BME280_pressure;Samples;Min_cycle;Max_cycle;Signal;HPM_P1;HPM_P2
2023/10/14 00:00:53;;;;;;;0.00;0.00;;;;;;;;;;4982104;28;20034;-61
2023/10/14 00:03:27;;;;;;;0.00;0.00;;;;;;;;;;4982530;28;20038;-61
2023/10/14 00:05:54;;;;;;;0.00;0.00;;;;;;;;;;4981290;28;20043;-59
2023/10/14 00:08:20;;;;;;;0.00;0.00;;;;;;;;;;4981631;28;20038;-61
2023/10/14 00:10:46;;;;;;;0.00;0.00;;;;;;;;;;4981537;28;20666;-61
2023/10/14 00:13:16;;;;;;;0.00;0.00;;;;;;;;;;4980282;28;20042;-62
2023/10/14 00:15:42;;;;;;;0.00;0.00;;;;;;;;;;4987571;28;20097;-57
2023/10/14 00:18:08;;;;;;;0.00;0.00;;;;;;;;;;4983458;28;20044;-57
2023/10/14 00:20:35;;;;;;;0.00;0.00;;;;;;;;;;4984189;28;20769;-55
2023/10/14 00:23:02;;;;;;;0.00;0.00;;;;;;;;;;4980420;28;20438;-56
2023/10/14 00:25:32;;;;;;;0.00;0.00;;;;;;;;;;4984779;28;20034;-56
2023/10/14 00:27:58;;;;;;;0.00;0.00;;;;;;;;;;4984178;28;20387;-57
2023/10/14 00:30:27;;;;;;;0.00;0.00;;;;;;;;;;4980678;28;20034;-55
2023/10/14 00:32:53;;;;;;;0.00;0.00;;;;;;;;;;4990894;28;20562;-57
2023/10/14 00:35:20;;;;;;;0.00;0.00;;;;;;;;;;4983141;28;20194;-55
2023/10/14 00:37:46;;;;;;;0.00;0.00;;;;;;;;;;4983417;28;20034;-55
2023/10/14 00:40:21;;;;;;;0.00;0.00;;;;;;;;;;4981276;28;20513;-55
2023/10/14 00:42:47;;;;;;;0.00;0.00;;;;;;;;;;4952522;28;1071215;-57
2023/10/14 00:45:13;;;;;;;0.00;0.00;;;;;;;;;;4986485;28;20038;-57
2023/10/14 00:47:44;;;;;;;0.00;0.00;;;;;;;;;;4996827;28;20069;-56
2023/10/14 00:50:33;;;;;;;0.00;0.00;;;;;;;;;;4992444;28;20038;-56
2023/10/14 00:52:59;;;;;;;0.00;0.00;;;;;;;;;;4989270;28;20121;-55
2023/10/14 00:58:12;;;;;;;0.00;0.00;;;;;;;;;;4980436;28;20405;-57
2023/10/14 01:01:00;;;;;;;0.00;0.00;;;;;;;;;;4985615;28;20058;-55
2023/10/14 01:03:26;;;;;;;0.00;0.00;;;;;;;;;;4980404;28;20490;-57
2023/10/14 01:06:06;;;;;;;0.00;0.00;;;;;;;;;;4983544;28;20042;-57
2023/10/14 01:08:37;;;;;;;0.00;0.00;;;;;;;;;;4994503;28;20543;-57
2023/10/14 01:11:03;;;;;;;0.00;0.00;;;14.60;99.90;;;;;;4983563;28;20569;-57
2023/10/14 01:13:29;;;;;;;0.00;0.00;;;;;;;;;;4988085;28;20148;-56
2023/10/14 01:16:04;;;;;;;0.00;0.00;;;;;;;;;;4979795;28;20118;-56
2023/10/14 01:18:34;;;;;;;0.00;0.00;;;;;;;;;;4987709;28;20054;-56
2023/10/14 01:21:02;;;;;;;0.00;0.00;;;14.00;99.90;;;;;;4981807;28;20122;-56
2023/10/14 01:23:30;;;;;;;0.00;0.00;;;14.00;99.90;;;;;;4979874;28;20058;-56
2023/10/14 01:25:57;;;;;;;0.00;0.00;;;;;;;;;;4984613;28;20197;-59
2023/10/14 01:28:30;;;;;;;0.00;0.00;;;;;;;;;;4980298;28;20503;-58
2023/10/14 01:33:57;;;;;;;0.00;0.00;;;13.90;99.90;;;;;;4980730;28;20045;-58
2023/10/14 01:36:27;;;;;;;0.00;0.00;;;;;;;;;;4983038;28;20065;-58
2023/10/14 01:38:58;;;;;;;0.00;0.00;;;;;;;;;;4982902;28;20058;-58
2023/10/14 01:41:29;;;;;;;0.00;0.00;;;;;;;;;;4981634;28;20125;-57
2023/10/14 01:43:57;;;;;;;0.00;0.00;;;13.70;99.90;;;;;;4984850;28;20053;-59
2023/10/14 01:46:27;;;;;;;0.00;0.00;;;13.80;99.90;;;;;;4981618;28;20380;-57
2023/10/14 01:48:54;;;;;;;0.00;0.00;;;13.80;99.90;;;;;;4980390;28;20038;-55
2023/10/14 01:51:20;;;;;;;0.00;0.00;;;13.70;99.90;;;;;;4980723;28;20031;-55
2023/10/14 01:53:46;;;;;;;0.00;0.00;;;13.70;99.90;;;;;;4980627;28;20050;-57
2023/10/14 01:56:12;;;;;;;0.00;0.00;;;13.90;99.90;;;;;;4975829;28;20049;-56
2023/10/14 01:58:40;;;;;;;0.00;0.00;;;13.80;99.90;;;;;;4985719;28;20042;-56
2023/10/14 02:01:14;;;;;;;0.00;0.00;;;13.90;99.90;;;;;;4974605;28;20886;-56
2023/10/14 02:03:43;;;;;;;0.00;0.00;;;14.00;99.90;;;;;;4976453;28;20034;-55
2023/10/14 02:06:16;;;;;;;0.00;0.00;;;14.10;99.90;;;;;;4979482;28;20037;-56
2023/10/14 02:08:52;;;;;;;;;;;14.10;99.90;;;;;;4979871;28;20035;-56
2023/10/14 02:11:35;;;;;;;0.00;0.00;;;14.00;99.90;;;;;;4979904;28;20390;-57
2023/10/14 02:14:07;;;;;;;0.00;0.00;;;14.00;99.90;;;;;;4981437;28;20489;-56
2023/10/14 02:16:42;;;;;;;0.00;0.00;;;14.10;99.90;;;;;;4994286;28;20045;-56
2023/10/14 02:19:21;;;;;;;0.00;0.00;;;11.40;99.90;;;;;;4981670;28;20061;-57
2023/10/14 02:22:03;;;;;;;0.00;0.00;;;14.30;99.90;;;;;;4980247;28;20053;-57
2023/10/14 02:24:29;;;;;;;0.00;0.00;;;14.60;99.90;;;;;;4999924;28;20100;-56
2023/10/14 02:26:58;;;;;;;0.00;0.00;;;14.10;99.90;;;;;;5002716;28;20045;-56
2023/10/14 02:29:24;;;;;;;0.00;0.00;;;15.00;99.90;;;;;;4980052;28;20045;-55
2023/10/14 02:31:51;;;;;;;0.00;0.00;;;;;;;;;;4986961;28;20129;-56
2023/10/14 02:34:18;;;;;;;0.00;0.00;;;14.10;99.90;;;;;;4982388;28;20414;-54
2023/10/14 02:36:50;;;;;;;0.00;0.00;;;14.20;99.90;;;;;;4982343;28;20050;-55
2023/10/14 02:39:26;;;;;;;0.00;0.00;;;14.10;99.90;;;;;;4981666;28;20186;-56
2023/10/14 02:42:06;;;;;;;0.00;0.00;;;14.10;99.90;;;;;;4982683;28;20553;-56
2023/10/14 02:44:43;;;;;;;0.00;0.00;;;13.90;99.90;;;;;;4999392;28;20482;-56
2023/10/14 02:47:09;;;;;;;0.00;0.00;;;14.10;99.90;;;;;;5001181;28;20042;-59
2023/10/14 02:49:46;;;;;;;0.00;0.00;;;14.00;99.90;;;;;;4990980;28;20030;-58
2023/10/14 02:52:17;;;;;;;0.00;0.00;;;13.90;99.90;;;;;;4980454;28;20051;-59
2023/10/14 02:54:45;;;;;;;0.00;0.00;;;14.00;99.90;;;;;;4982336;28;20078;-58
2023/10/14 02:57:23;;;;;;;0.00;0.00;;;13.30;99.90;;;;;;4982646;28;20479;-54
2023/10/14 02:59:50;;;;;;;0.00;0.00;;;13.50;99.90;;;;;;4992703;28;20042;-55
2023/10/14 03:02:27;;;;;;;0.00;0.00;;;13.30;99.90;;;;;;4979800;28;20145;-55
2023/10/14 03:07:33;;;;;;;0.00;0.00;;;13.00;99.90;;;;;;4979405;28;20726;-55
2023/10/14 03:12:50;;;;;;;0.00;0.00;;;13.20;99.90;;;;;;4978905;28;20186;-57
2023/10/14 03:15:20;;;;;;;0.00;0.00;;;12.90;99.90;;;;;;4977792;28;20034;-55
2023/10/14 03:17:56;;;;;;;0.00;0.00;;;12.60;99.90;;;;;;4979489;28;20513;-56
2023/10/14 03:22:51;;;;;;;0.00;0.00;;;12.70;99.90;;;;;;4979460;28;20088;-54
2023/10/14 03:25:23;;;;;;;0.00;0.00;;;12.80;99.90;;;;;;4978728;28;20046;-52
2023/10/14 03:27:50;;;;;;;0.00;0.00;;;12.80;99.90;;;;;;4977236;28;20383;-54
2023/10/14 03:30:15;;;;;;;0.00;0.00;;;12.70;99.90;;;;;;4979271;28;20030;-55
2023/10/14 03:32:42;;;;;;;0.00;0.00;;;12.70;99.90;;;;;;4981954;28;20750;-54
2023/10/14 03:35:13;;;;;;;0.00;0.00;;;12.70;99.90;;;;;;4980235;28;20038;-53
2023/10/14 03:37:52;;;;;;;0.00;0.00;;;13.00;99.90;;;;;;4984127;28;20141;-54
2023/10/14 03:43:08;;;;;;;0.00;0.00;;;13.10;99.90;;;;;;4984268;28;20391;-55
2023/10/14 03:45:45;;;;;;;0.00;0.00;;;13.10;99.90;;;;;;4985279;28;20860;-55
2023/10/14 03:48:13;;;;;;;0.00;0.00;;;12.90;99.90;;;;;;4983947;28;20383;-54
2023/10/14 03:50:39;;;;;;;0.00;0.00;;;12.90;99.90;;;;;;4985743;28;20038;-53
2023/10/14 03:53:05;;;;;;;0.00;0.00;;;12.90;99.90;;;;;;4983321;28;20221;-54
2023/10/14 03:55:31;;;;;;;0.00;0.00;;;13.10;99.90;;;;;;4985484;28;20042;-57
2023/10/14 03:58:03;;;;;;;0.00;0.00;;;13.00;99.90;;;;;;4985390;28;20038;-58
2023/10/14 04:00:38;;;;;;;0.00;0.00;;;13.20;99.90;;;;;;4991679;28;20749;-57
2023/10/14 04:03:11;;;;;;;0.00;0.00;;;13.50;99.90;;;;;;4983342;28;20491;-58
2023/10/14 04:05:41;;;;;;;;;;;13.40;99.90;;;;;;4984467;28;20495;-53
2023/10/14 04:08:08;;;;;;;0.00;0.00;;;13.60;99.90;;;;;;4983745;28;19925;-53
2023/10/14 04:10:38;;;;;;;0.00;0.00;;;13.70;99.90;;;;;;4988361;28;20125;-54
2023/10/14 04:13:12;;;;;;;0.00;0.00;;;13.70;99.90;;;;;;4987055;28;20066;-56
2023/10/14 04:15:52;;;;;;;0.00;0.00;;;13.50;99.90;;;;;;4985189;28;20038;-56
2023/10/14 04:18:24;;;;;;;0.00;0.00;;;13.50;99.90;;;;;;4983523;28;20031;-53
2023/10/14 04:21:10;;;;;;;0.00;0.00;;;13.60;99.90;;;;;;4984719;28;20034;-55
2023/10/14 04:23:42;;;;;;;0.00;0.00;;;13.60;99.90;;;;;;4987924;28;20065;-55
2023/10/14 04:26:11;;;;;;;0.00;0.00;;;13.50;99.90;;;;;;4982894;28;20577;-54
2023/10/14 04:28:53;;;;;;;0.00;0.00;;;13.40;99.90;;;;;;4983425;28;20577;-54
2023/10/14 04:31:26;;;;;;;0.00;0.00;;;13.30;99.90;;;;;;4980076;28;20561;-53
2023/10/14 04:33:55;;;;;;;0.00;0.00;;;13.30;99.90;;;;;;4982674;28;20038;-55
2023/10/14 04:36:36;;;;;;;0.00;0.00;;;13.30;99.90;;;;;;4980879;28;20046;-53
2023/10/14 04:39:14;;;;;;;0.00;0.00;;;13.40;99.90;;;;;;4978066;28;20605;-53
2023/10/14 04:42:05;;;;;;;0.00;0.00;;;13.40;99.90;;;;;;4985040;28;20042;-54
2023/10/14 04:44:37;;;;;;;0.00;0.00;;;13.20;99.90;;;;;;4991872;28;20127;-54
2023/10/14 04:47:08;;;;;;;0.00;0.00;;;13.00;99.90;;;;;;4984025;28;20491;-54
2023/10/14 04:49:37;;;;;;;0.00;0.00;;;13.00;99.90;;;;;;4988684;28;20490;-55
2023/10/14 04:52:06;;;;;;;0.00;0.00;;;13.20;99.90;;;;;;4983990;28;20160;-54
2023/10/14 04:54:37;;;;;;;0.00;0.00;;;13.20;99.90;;;;;;4982001;28;20042;-53
2023/10/14 04:57:22;;;;;;;0.00;0.00;;;13.10;99.90;;;;;;4981089;28;20382;-54
2023/10/14 04:59:53;;;;;;;0.00;0.00;;;13.10;99.90;;;;;;4994273;28;20561;-55
2023/10/14 05:02:21;;;;;;;0.00;0.00;;;13.20;99.90;;;;;;4995877;28;20121;-54
2023/10/14 05:04:48;;;;;;;0.00;0.00;;;13.20;99.90;;;;;;4983192;28;20510;-55
2023/10/14 05:07:15;;;;;;;0.00;0.00;;;13.20;99.90;;;;;;4980802;28;20034;-54
2023/10/14 05:09:42;;;;;;;0.00;0.00;;;13.00;99.90;;;;;;4981296;28;20410;-54
2023/10/14 05:12:08;;;;;;;0.00;0.00;;;13.10;99.90;;;;;;4980785;28;20030;-53
2023/10/14 05:14:36;;;;;;;0.00;0.00;;;12.90;99.90;;;;;;4982824;28;20042;-52
2023/10/14 05:17:49;;;;;;;0.00;0.00;;;12.90;99.90;;;;;;4981575;28;20061;-55
2023/10/14 05:19:48;;;;;;;0.00;0.00;;;13.00;99.90;;;;;;4976810;28;20038;-53
2023/10/14 05:22:23;;;;;;;0.00;0.00;;;13.10;99.90;;;;;;4982915;28;20136;-53
2023/10/14 05:24:56;;;;;;;0.00;0.00;;;13.20;99.90;;;;;;4983923;28;20795;-53
2023/10/14 05:27:35;;;;;;;0.00;0.00;;;13.20;99.90;;;;;;4982486;28;20422;-54
2023/10/14 05:30:06;;;;;;;0.00;0.00;;;13.20;99.90;;;;;;4981238;28;20542;-51
2023/10/14 05:32:31;;;;;;;0.00;0.00;;;13.20;99.90;;;;;;4990585;28;20570;-56
2023/10/14 05:34:59;;;;;;;0.00;0.00;;;13.20;99.90;;;;;;4983211;28;20359;-50
2023/10/14 05:37:25;;;;;;;0.00;0.00;;;13.20;99.90;;;;;;4981446;28;20521;-55
2023/10/14 05:39:54;;;;;;;0.00;0.00;;;13.10;99.90;;;;;;4983571;28;20463;-53
2023/10/14 05:42:24;;;;;;;0.00;0.00;;;13.10;99.90;;;;;;4982656;28;20121;-54
2023/10/14 05:45:01;;;;;;;0.00;0.00;;;13.00;99.90;;;;;;4983914;28;20046;-53
2023/10/14 05:47:29;;;;;;;0.00;0.00;;;12.80;99.90;;;;;;4982189;28;20482;-54
2023/10/14 05:49:55;;;;;;;0.00;0.00;;;12.80;99.90;;;;;;4978616;28;20087;-54
2023/10/14 05:52:24;;;;;;;0.00;0.00;;;12.80;99.90;;;;;;4980138;28;20050;-51
2023/10/14 05:54:50;;;;;;;0.00;0.00;;;12.70;99.90;;;;;;4983697;28;20089;-54
2023/10/14 05:57:20;;;;;;;0.00;0.00;;;12.70;99.90;;;;;;4984284;28;20046;-50
2023/10/14 05:59:48;;;;;;;0.00;0.00;;;12.80;99.90;;;;;;4986786;28;20137;-54
2023/10/14 06:02:14;;;;;;;0.00;0.00;;;12.80;99.90;;;;;;4983251;28;20038;-54
2023/10/14 06:04:39;;;;;;;0.00;0.00;;;12.70;99.90;;;;;;4980858;28;20436;-52
2023/10/14 06:07:09;;;;;;;0.00;0.00;;;12.60;99.90;;;;;;4982734;28;20129;-53
2023/10/14 06:09:36;;;;;;;0.00;0.00;;;12.60;99.90;;;;;;4982730;28;20049;-55
2023/10/14 06:12:05;;;;;;;0.00;0.00;;;12.50;99.90;;;;;;4982287;28;20038;-53
2023/10/14 06:14:32;;;;;;;0.00;0.00;;;12.60;99.90;;;;;;4982708;28;20042;-55
2023/10/14 06:16:58;;;;;;;0.00;0.00;;;12.60;99.90;;;;;;4981568;28;20034;-55
2023/10/14 06:19:24;;;;;;;0.00;0.00;;;12.60;99.90;;;;;;4980171;28;20383;-54
2023/10/14 06:21:49;;;;;;;0.00;0.00;;;12.60;99.90;;;;;;4979142;28;20516;-53
2023/10/14 06:24:15;;;;;;;0.00;0.00;;;12.60;99.90;;;;;;4986335;28;20034;-55
2023/10/14 06:26:41;;;;;;;0.00;0.00;;;12.60;99.90;;;;;;4980351;28;20450;-53
2023/10/14 06:29:09;;;;;;;0.00;0.00;;;12.60;99.90;;;;;;4979154;28;20043;-55
2023/10/14 06:31:37;;;;;;;0.00;0.00;;;12.70;99.90;;;;;;4980504;28;20126;-55
2023/10/14 06:34:08;;;;;;;0.00;0.00;;;12.60;99.90;;;;;;4974728;28;20121;-54
2023/10/14 06:36:35;;;;;;;0.00;0.00;;;12.70;99.90;;;;;;4981091;28;20057;-55
2023/10/14 06:39:13;;;;;;;0.00;0.00;;;12.80;99.90;;;;;;4982595;28;20129;-52
2023/10/14 06:41:45;;;;;;;0.00;0.00;;;12.70;99.90;;;;;;4978421;28;20486;-54
2023/10/14 06:44:15;;;;;;;0.00;0.00;;;12.80;99.90;;;;;;4988053;28;20035;-53
2023/10/14 06:46:44;;;;;;;0.00;0.00;;;12.80;99.90;;;;;;4981152;28;20722;-53
2023/10/14 06:49:13;;;;;;;0.00;0.00;;;12.80;99.90;;;;;;4978084;28;20034;-55
2023/10/14 06:51:43;;;;;;;0.00;0.00;;;12.70;99.90;;;;;;4979978;28;20534;-53
2023/10/14 06:54:09;;;;;;;0.00;0.00;;;12.70;99.90;;;;;;4979007;28;20581;-55
2023/10/14 06:56:36;;;;;;;0.00;0.00;;;12.70;99.90;;;;;;4980643;28;20394;-53
2023/10/14 06:59:02;;;;;;;0.00;0.00;;;12.60;99.90;;;;;;4978948;28;20498;-55
2023/10/14 07:01:28;;;;;;;0.00;0.00;;;12.70;99.90;;;;;;4979214;28;20034;-52
2023/10/14 07:03:54;;;;;;;0.00;0.00;;;12.80;99.90;;;;;;4981515;28;20046;-54
2023/10/14 07:06:21;;;;;;;0.00;0.00;;;12.80;99.90;;;;;;4982046;28;20491;-55
2023/10/14 07:08:49;;;;;;;0.00;0.00;;;12.90;99.90;;;;;;4981832;28;20050;-55
2023/10/14 07:11:15;;;;;;;0.00;0.00;;;12.90;99.90;;;;;;4980428;28;20038;-54
2023/10/14 07:13:42;;;;;;;0.00;0.00;;;13.00;99.90;;;;;;4985701;28;20043;-54
2023/10/14 07:16:08;;;;;;;0.00;0.00;;;13.00;99.90;;;;;;4982152;28;20080;-53
2023/10/14 07:18:38;;;;;;;0.00;0.00;;;13.10;99.90;;;;;;4985438;28;20035;-50
2023/10/14 07:21:08;;;;;;;0.00;0.00;;;13.20;99.90;;;;;;4984990;28;20039;-51
2023/10/14 07:23:34;;;;;;;0.00;0.00;;;13.30;99.90;;;;;;4986816;28;20077;-53
2023/10/14 07:26:09;;;;;;;0.00;0.00;;;13.20;99.90;;;;;;4985725;28;20046;-54
2023/10/14 07:28:36;;;;;;;0.00;0.00;;;13.10;99.90;;;;;;4990031;28;20042;-50
2023/10/14 07:31:01;;;;;;;0.00;0.00;;;13.00;99.90;;;;;;4981817;28;20145;-53
2023/10/14 07:33:29;;;;;;;0.00;0.00;;;13.00;99.90;;;;;;4986025;28;20136;-53
2023/10/14 07:35:57;;;;;;;0.00;0.00;;;13.00;99.90;;;;;;4988767;28;20533;-54
2023/10/14 07:38:23;;;;;;;0.00;0.00;;;13.00;99.90;;;;;;4986334;28;20773;-52
2023/10/14 07:40:49;;;;;;;0.00;0.00;;;13.00;99.90;;;;;;4989718;28;20419;-52
2023/10/14 07:43:15;;;;;;;0.00;0.00;;;13.00;99.90;;;;;;4986081;28;20035;-55
2023/10/14 07:45:42;;;;;;;0.00;0.00;;;13.10;99.90;;;;;;4991005;28;20359;-58
2023/10/14 07:48:10;;;;;;;0.00;0.00;;;13.10;99.90;;;;;;4984971;28;20038;-56
2023/10/14 07:50:39;;;;;;;0.00;0.00;;;13.10;99.90;;;;;;4987307;28;20465;-57
2023/10/14 07:53:12;;;;;;;0.00;0.00;;;13.00;99.90;;;;;;4986400;28;20504;-57
2023/10/14 07:55:38;;;;;;;0.00;0.00;;;13.10;99.90;;;;;;4988644;28;20114;-56
2023/10/14 07:58:08;;;;;;;0.00;0.00;;;13.20;99.90;;;;;;4998832;28;20037;-55
2023/10/14 08:00:51;;;;;;;0.00;0.00;;;13.20;99.90;;;;;;5000794;28;20045;-56
2023/10/14 08:03:20;;;;;;;0.00;0.00;;;13.30;99.90;;;;;;4985915;28;20248;-57
2023/10/14 08:05:51;;;;;;;0.00;0.00;;;13.30;99.90;;;;;;4986024;28;20041;-57
2023/10/14 08:08:20;;;;;;;0.00;0.00;;;13.40;99.90;;;;;;4983949;28;20620;-56
2023/10/14 08:10:48;;;;;;;0.00;0.00;;;13.50;99.90;;;;;;4990581;28;20570;-57
2023/10/14 08:13:18;;;;;;;0.00;0.00;;;13.60;99.90;;;;;;4988286;28;20031;-54
2023/10/14 08:15:43;;;;;;;0.00;0.00;;;13.50;99.90;;;;;;4992133;28;20521;-57
2023/10/14 08:18:11;;;;;;;0.00;0.00;;;13.50;99.90;;;;;;4988333;28;20040;-56
2023/10/14 08:20:37;;;;;;;0.00;0.00;;;13.50;99.90;;;;;;4990291;28;20062;-55
2023/10/14 08:23:09;;;;;;;0.00;0.00;;;13.40;99.90;;;;;;4987452;28;20754;-57
2023/10/14 08:25:41;;;;;;;0.00;0.00;;;13.30;99.90;;;;;;4997571;28;20478;-57
2023/10/14 08:28:10;;;;;;;0.00;0.00;;;13.20;99.90;;;;;;4993557;28;20046;-58
2023/10/14 08:30:45;;;;;;;0.00;0.00;;;13.20;99.90;;;;;;4991504;28;20106;-57
2023/10/14 08:33:14;;;;;;;0.00;0.00;;;13.20;99.90;;;;;;4989130;28;20038;-55
2023/10/14 08:35:43;;;;;;;0.00;0.00;;;13.30;99.90;;;;;;4997424;28;20030;-58
2023/10/14 08:38:14;;;;;;;0.00;0.00;;;13.40;99.90;;;;;;4993953;28;20038;-57
2023/10/14 08:40:41;;;;;;;0.00;0.00;;;13.40;99.90;;;;;;4989741;28;20046;-58
2023/10/14 08:43:10;;;;;;;0.00;0.00;;;13.40;99.90;;;;;;4982304;28;20104;-57
2023/10/14 08:45:39;;;;;;;0.00;0.00;;;13.40;99.90;;;;;;4992277;28;20117;-57
2023/10/14 08:48:08;;;;;;;0.00;0.00;;;13.40;99.90;;;;;;5000728;28;20462;-56
2023/10/14 08:50:35;;;;;;;0.00;0.00;;;13.30;99.90;;;;;;4979267;28;20060;-55
2023/10/14 08:53:06;;;;;;;0.00;0.00;;;13.30;99.90;;;;;;4983817;28;20121;-54
2023/10/14 08:55:36;;;;;;;0.00;0.00;;;13.30;99.90;;;;;;4989669;28;20037;-55
2023/10/14 08:58:04;;;;;;;0.00;0.00;;;13.50;99.90;;;;;;4990505;28;20099;-56
2023/10/14 09:00:36;;;;;;;0.00;0.00;;;13.50;99.90;;;;;;5001072;28;20127;-57
2023/10/14 09:03:09;;;;;;;0.00;0.00;;;13.50;99.90;;;;;;4985926;28;20120;-56
2023/10/14 09:05:40;;;;;;;0.00;0.00;;;13.50;99.90;;;;;;4999112;28;20038;-56
2023/10/14 09:08:10;;;;;;;0.00;0.00;;;13.50;99.90;;;;;;4993143;28;20522;-56
2023/10/14 09:10:39;;;;;;;0.00;0.00;;;13.60;99.90;;;;;;4985007;28;20140;-56
2023/10/14 09:13:08;;;;;;;0.00;0.00;;;13.60;99.90;;;;;;4988941;28;20041;-56
2023/10/14 09:15:52;;;;;;;0.00;0.00;;;13.60;99.90;;;;;;4993753;28;20045;-56
2023/10/14 09:18:21;;;;;;;0.00;0.00;;;13.70;99.90;;;;;;4981074;28;20070;-55
2023/10/14 09:20:53;;;;;;;0.00;0.00;;;13.60;99.90;;;;;;4987299;28;20477;-56
2023/10/14 09:23:33;;;;;;;0.00;0.00;;;13.70;99.90;;;;;;4980259;28;20470;-57
2023/10/14 09:26:00;;;;;;;0.00;0.00;;;13.60;99.90;;;;;;4984379;28;20545;-56
2023/10/14 09:28:33;;;;;;;0.00;0.00;;;13.70;99.90;;;;;;4983700;28;20026;-57
2023/10/14 09:30:59;;;;;;;0.00;0.00;;;13.60;99.90;;;;;;4976587;28;20679;-56
2023/10/14 09:33:27;;;;;;;0.00;0.00;;;13.60;99.90;;;;;;4989469;28;20034;-55
2023/10/14 09:36:05;;;;;;;0.00;0.00;;;13.70;99.90;;;;;;4982164;28;20046;-57
2023/10/14 09:38:32;;;;;;;0.00;0.00;;;13.80;99.90;;;;;;4998803;28;20029;-57
2023/10/14 09:41:03;;;;;;;0.00;0.00;;;13.90;99.90;;;;;;4987262;28;20039;-55
2023/10/14 09:43:33;;;;;;;0.00;0.00;;;14.00;99.90;;;;;;5002156;28;20380;-57
2023/10/14 09:46:00;;;;;;;0.00;0.00;;;13.90;99.90;;;;;;4998501;28;20525;-58
2023/10/14 09:48:31;;;;;;;0.00;0.00;;;13.80;99.90;;;;;;5000382;28;20103;-55
2023/10/14 09:51:00;;;;;;;0.00;0.00;;;13.80;99.90;;;;;;4999483;28;20042;-58
2023/10/14 09:53:34;;;;;;;0.00;0.00;;;13.90;99.90;;;;;;4990421;28;20042;-55
2023/10/14 09:56:04;;;;;;;0.00;0.00;;;13.90;99.90;;;;;;4990636;28;20076;-58
2023/10/14 09:58:34;;;;;;;0.00;0.00;;;13.90;99.90;;;;;;4999296;28;20191;-57
2023/10/14 10:01:00;;;;;;;0.00;0.00;;;14.00;99.90;;;;;;4983575;28;20105;-60
2023/10/14 10:03:29;;;;;;;0.00;0.00;;;14.00;99.90;;;;;;4988443;28;20117;-60
2023/10/14 10:06:10;;;;;;;0.00;0.00;;;14.00;99.90;;;;;;4984505;28;20034;-60
2023/10/14 10:08:39;;;;;;;0.00;0.00;;;14.10;99.90;;;;;;4984448;28;20678;-61
2023/10/14 10:11:06;;;;;;;0.00;0.00;;;14.00;99.90;;;;;;4977953;28;20040;-59
2023/10/14 10:13:32;;;;;;;0.00;0.00;;;13.80;99.90;;;;;;4979042;28;20085;-60
2023/10/14 10:16:04;;;;;;;0.00;0.00;;;13.80;99.90;;;;;;4980676;28;20038;-58
2023/10/14 10:19:00;;;;;;;0.00;0.00;;;13.80;99.90;;;;;;4990684;28;20038;-57
2023/10/14 10:21:29;;;;;;;0.00;0.00;;;13.90;99.90;;;;;;4989934;28;20101;-58
2023/10/14 10:24:02;;;;;;;0.00;0.00;;;13.80;99.90;;;;;;4979250;28;20046;-58
2023/10/14 10:27:03;;;;;;;0.00;0.00;;;13.80;99.90;;;;;;4978830;28;20140;-57
2023/10/14 10:29:33;;;;;;;0.00;0.00;;;14.00;99.90;;;;;;4982375;28;20081;-58
2023/10/14 10:32:17;;;;;;;0.00;0.00;;;14.20;99.90;;;;;;4980832;28;20402;-58
2023/10/14 10:35:07;;;;;;;0.00;0.00;;;14.30;99.90;;;;;;4978343;28;20042;-57
2023/10/14 10:37:53;;;;;;;0.00;0.00;;;14.50;99.90;;;;;;4995870;28;20042;-59
2023/10/14 10:40:27;;;;;;;0.00;0.00;;;14.30;99.90;;;;;;4979318;28;20047;-60
2023/10/14 10:43:07;;;;;;;;;;;14.20;99.90;;;;;;4982946;28;20065;-59
2023/10/14 10:45:34;;;;;;;0.00;0.00;;;14.20;99.90;;;;;;4980969;28;19918;-60
2023/10/14 10:48:04;;;;;;;0.00;0.00;;;14.30;99.90;;;;;;4981899;28;20030;-60
2023/10/14 10:50:37;;;;;;;0.00;0.00;;;14.30;99.90;;;;;;4992025;28;20038;-61
2023/10/14 10:53:08;;;;;;;0.00;0.00;;;14.40;99.90;;;;;;4984155;28;20112;-60
2023/10/14 10:55:38;;;;;;;0.00;0.00;;;14.60;99.90;;;;;;4984634;28;20037;-60
2023/10/14 10:58:05;;;;;;;0.00;0.00;;;14.60;99.90;;;;;;4984883;28;20384;-60
2023/10/14 11:00:32;;;;;;;0.00;0.00;;;14.50;99.90;;;;;;4983987;28;20406;-58
2023/10/14 11:03:02;;;;;;;0.00;0.00;;;14.50;99.90;;;;;;4984451;28;20047;-60
2023/10/14 11:05:29;;;;;;;0.00;0.00;;;14.50;99.90;;;;;;4986657;28;20060;-60
2023/10/14 11:07:56;;;;;;;0.00;0.00;;;14.40;99.90;;;;;;4989680;28;20049;-60
2023/10/14 11:10:30;;;;;;;0.00;0.00;;;14.30;99.90;;;;;;4983964;28;20061;-60
2023/10/14 11:12:59;;;;;;;0.00;0.00;;;14.40;99.90;;;;;;4984818;28;20066;-59
2023/10/14 11:15:27;;;;;;;0.00;0.00;;;14.40;99.90;;;;;;4984310;28;20523;-61
2023/10/14 11:17:56;;;;;;;0.00;0.00;;;14.50;99.90;;;;;;4982109;28;20039;-59
2023/10/14 11:20:24;;;;;;;0.00;0.00;;;14.40;99.90;;;;;;4984968;28;20068;-60
2023/10/14 11:22:50;;;;;;;0.00;0.00;;;14.30;99.90;;;;;;4988118;28;20546;-60
2023/10/14 11:25:19;;;;;;;0.00;0.00;;;14.30;99.90;;;;;;4984730;28;20042;-60
2023/10/14 11:27:46;;;;;;;0.00;0.00;;;14.20;99.90;;;;;;4985874;28;20402;-61
2023/10/14 11:30:18;;;;;;;0.00;0.00;;;14.20;99.90;;;;;;4982732;28;20042;-60
2023/10/14 11:32:53;;;;;;;0.00;0.00;;;14.30;99.90;;;;;;4980080;28;20105;-59
2023/10/14 11:35:24;;;;;;;0.00;0.00;;;14.30;99.90;;;;;;5000050;28;20129;-58
2023/10/14 11:37:54;;;;;;;0.00;0.00;;;14.30;99.90;;;;;;4985209;28;20042;-60
2023/10/14 11:40:25;;;;;;;0.00;0.00;;;14.20;99.90;;;;;;4980113;28;20050;-59
2023/10/14 11:42:54;;;;;;;0.00;0.00;;;14.20;99.90;;;;;;4979368;28;20074;-58
2023/10/14 11:45:20;;;;;;;0.00;0.00;;;14.10;99.90;;;;;;4977485;28;20553;-60
2023/10/14 11:47:46;;;;;;;0.00;0.00;;;14.20;99.90;;;;;;4984567;28;20662;-58
2023/10/14 11:50:12;;;;;;;0.00;0.00;;;14.30;99.90;;;;;;4982763;28;20031;-57
2023/10/14 11:52:42;;;;;;;0.00;0.00;;;14.30;99.90;;;;;;4986225;28;20045;-57
2023/10/14 11:55:14;;;;;;;0.00;0.00;;;14.40;99.90;;;;;;4977529;28;20383;-56
2023/10/14 11:57:41;;;;;;;0.00;0.00;;;14.50;99.90;;;;;;4977771;28;20046;-60
2023/10/14 12:00:10;;;;;;;0.00;0.00;;;14.60;99.90;;;;;;4978887;28;20170;-60
2023/10/14 12:02:36;;;;;;;0.00;0.00;;;14.60;99.90;;;;;;4982068;28;20179;-59
2023/10/14 12:05:03;;;;;;;0.00;0.00;;;14.70;99.90;;;;;;4984345;28;20042;-60
2023/10/14 12:07:32;;;;;;;0.00;0.00;;;14.70;99.90;;;;;;4986773;28;20494;-57
2023/10/14 12:09:59;;;;;;;0.00;0.00;;;14.50;99.90;;;;;;4978414;28;20046;-58
2023/10/14 12:12:25;;;;;;;0.00;0.00;;;14.60;99.90;;;;;;4983023;28;20792;-58
2023/10/14 12:14:50;;;;;;;0.00;0.00;;;14.60;99.90;;;;;;5005004;28;20103;-58
2023/10/14 12:17:17;;;;;;;0.00;0.00;;;14.40;99.90;;;;;;4983522;28;20080;-59
2023/10/14 12:19:43;;;;;;;0.00;0.00;;;14.40;99.90;;;;;;4984105;28;20107;-58
2023/10/14 12:22:09;;;;;;;0.00;0.00;;;14.40;99.90;;;;;;4978489;28;20038;-58
2023/10/14 12:24:35;;;;;;;0.00;0.00;;;14.70;99.90;;;;;;4981328;28;20501;-59
2023/10/14 12:27:01;;;;;;;0.00;0.00;;;14.80;99.90;;;;;;4980417;28;20398;-57
2023/10/14 12:29:28;;;;;;;0.00;0.00;;;14.90;99.90;;;;;;4979034;28;20457;-58
2023/10/14 12:31:58;;;;;;;0.00;0.00;;;14.90;99.90;;;;;;4981045;28;20038;-58
2023/10/14 12:34:24;;;;;;;0.00;0.00;;;15.00;99.90;;;;;;4978968;28;20057;-56
2023/10/14 12:36:52;;;;;;;0.00;0.00;;;15.10;99.90;;;;;;4981682;28;20445;-57
2023/10/14 12:39:26;;;;;;;0.00;0.00;;;15.00;99.90;;;;;;4984439;28;20038;-58
2023/10/14 12:41:53;;;;;;;0.00;0.00;;;15.00;99.90;;;;;;4985896;28;20041;-57
2023/10/14 12:44:22;;;;;;;0.00;0.00;;;15.10;99.90;;;;;;4982326;28;20133;-57
2023/10/14 12:46:48;;;;;;;0.00;0.00;;;14.90;99.90;;;;;;4985927;28;20068;-58
2023/10/14 12:49:18;;;;;;;0.00;0.00;;;14.90;99.90;;;;;;4978981;28;20319;-57
2023/10/14 12:51:44;;;;;;;0.00;0.00;;;14.80;99.90;;;;;;4993076;28;20033;-57
2023/10/14 12:54:19;;;;;;;0.00;0.00;;;14.90;99.90;;;;;;4981389;28;20695;-58
2023/10/14 12:56:46;;;;;;;0.00;0.00;;;14.80;99.90;;;;;;4978434;28;20042;-58
2023/10/14 12:59:14;;;;;;;0.00;0.00;;;14.80;99.90;;;;;;4986918;28;20080;-58
2023/10/14 13:01:46;;;;;;;0.00;0.00;;;14.80;99.90;;;;;;4982789;28;20034;-58
2023/10/14 13:04:13;;;;;;;0.00;0.00;;;14.80;99.90;;;;;;4980290;28;20038;-58
2023/10/14 13:06:44;;;;;;;0.00;0.00;;;14.80;99.90;;;;;;4981780;28;20069;-58
2023/10/14 13:09:11;;;;;;;0.00;0.00;;;14.70;99.90;;;;;;4991098;28;20037;-58
2023/10/14 13:11:43;;;;;;;0.00;0.00;;;14.80;99.90;;;;;;4981914;28;20167;-59
2023/10/14 13:14:09;;;;;;;0.00;0.00;;;14.90;99.90;;;;;;4981211;28;20038;-59
2023/10/14 13:16:35;;;;;;;0.00;0.00;;;15.00;99.90;;;;;;4981448;28;20399;-60
2023/10/14 13:19:01;;;;;;;0.00;0.00;;;15.20;99.90;;;;;;4990079;28;20030;-61
2023/10/14 13:21:29;;;;;;;0.00;0.00;;;14.90;99.90;;;;;;4997482;28;20040;-61
2023/10/14 13:23:56;;;;;;;0.00;0.00;;;14.70;99.90;;;;;;4982203;28;20117;-61
2023/10/14 13:26:24;;;;;;;0.00;0.00;;;;;;;;;;4980299;28;20142;-61
2023/10/14 13:28:50;;;;;;;0.00;0.00;;;;;;;;;;4986704;28;20036;-59
2023/10/14 13:31:20;;;;;;;0.00;0.00;;;;;;;;;;4982950;28;20058;-61